Etusivu
METAR-TAF:

METAR-TAF

Lentoasemat :

Tianjin, Kiina

Leveyspiiri: 39-11N, Pituuspiiri: 117-21E, korkeus merenpinnasta: 3 m

Tämänhetkinen sää

Tämä raportti tehtiin 29 minuuttia sitten, kello 07.30 UTC
Tuuli 6 kn etelästä/lounaasta, vaihdellen etelän ja lännen/lounaan välillä
Lämpötila 32°C
Kosteus 24%
Ilmanpaine 1006 hPa
Näkyvyys 10 km tai enemmän
ei pilviä alle 1500 m:ssä eikä cumulonimbus-pilviä

METAR: ZBTJ 280730Z 20003MPS 170V240 CAVOK 32/09 Q1006 NOSIG

Aika: 15:59 (07:59 UTC)

Sääennuste

Tämä raportti tehtiin 4 tuntia ja 56 minuuttia sitten, kello 03.03 UTC
Ennuste voimassa 28. päivästä klo 06 UTC - 29. päivään klo 06 UTC
Tuuli 8 kn lounaasta
Näkyvyys: 5000 m
usvaa
Tulossa
29. päivästä klo 04 UTC - 29. päivään klo 05 UTC
Tuuli 16 kn lounaasta puuskistuen 25 kn:hen

TAF: ZBTJ 280303Z 2806/2906 22004MPS 5000 HZ NSC TX31/2807Z TN20/2821Z BECMG 2904/2905 22008G13MPS

Säähavainnot ja -ennusteet yli 4000 lentoasemalta (METAR- ja TAF-raportit).

Käytössä olevat sääasemat on merkitty karttaan keltaisilla ja punaisilla pisteillä.

Aseta hiiri pisteen päälle nähdäksesi sääaseman nimen.

Klikkaa sitten nähdäksesi säähavainnot ja -ennusteet.

Kartan vaihtaminen: klikkaa mustalla rastilla varustettuja vihreitä pisteitä, niin voit zoomata sisään; viivalla varustettua vihreää pistettä, niin voit zoomata ulos tai vihreitä nuolia, niin pääset viereisille kartoille.


METAR-TAF: